sensor_id;sensor_type;location;lat;lon;timestamp;pressure;altitude;pressure_sealevel;temperature;humidity
7180;BME280;3631;42.152;24.756;2024-02-23T00:00:16;86374.63;;;-144.30;79.60
7180;BME280;3631;42.152;24.756;2024-02-23T00:02:43;86404.47;;;-144.30;80.32
7180;BME280;3631;42.152;24.756;2024-02-23T00:05:10;86402.47;;;-144.30;80.77
7180;BME280;3631;42.152;24.756;2024-02-23T00:07:37;86370.66;;;-144.30;80.27
7180;BME280;3631;42.152;24.756;2024-02-23T00:10:07;86366.69;;;-144.30;80.34
7180;BME280;3631;42.152;24.756;2024-02-23T00:12:33;86424.34;;;-144.30;81.76
7180;BME280;3631;42.152;24.756;2024-02-23T00:15:00;86404.47;;;-144.30;82.41
7180;BME280;3631;42.152;24.756;2024-02-23T00:17:27;86404.47;;;-144.30;82.36
7180;BME280;3631;42.152;24.756;2024-02-23T00:19:54;86402.47;;;-144.30;83.37
7180;BME280;3631;42.152;24.756;2024-02-23T00:22:21;86430.31;;;-144.30;83.66
7180;BME280;3631;42.152;24.756;2024-02-23T00:24:48;86410.44;;;-144.30;83.97
7180;BME280;3631;42.152;24.756;2024-02-23T00:27:16;86386.56;;;-144.30;84.17
7180;BME280;3631;42.152;24.756;2024-02-23T00:29:43;86398.50;;;-144.30;83.79
7180;BME280;3631;42.152;24.756;2024-02-23T00:32:10;86408.44;;;-144.30;83.83
7180;BME280;3631;42.152;24.756;2024-02-23T00:34:38;86420.38;;;-144.30;83.89
7180;BME280;3631;42.152;24.756;2024-02-23T00:37:05;86434.28;;;-144.30;84.05
7180;BME280;3631;42.152;24.756;2024-02-23T00:39:33;86374.63;;;-144.30;84.92
7180;BME280;3631;42.152;24.756;2024-02-23T00:42:00;86406.44;;;-144.30;85.13
7180;BME280;3631;42.152;24.756;2024-02-23T00:44:28;86402.47;;;-144.30;85.48
7180;BME280;3631;42.152;24.756;2024-02-23T00:46:55;86400.50;;;-144.30;85.13
7180;BME280;3631;42.152;24.756;2024-02-23T00:49:23;85949.13;;;-144.30;84.42
7180;BME280;3631;42.152;24.756;2024-02-23T00:51:50;86394.53;;;-144.30;84.86
7180;BME280;3631;42.152;24.756;2024-02-23T00:54:17;86394.53;;;-144.30;84.37
7180;BME280;3631;42.152;24.756;2024-02-23T00:56:44;86410.44;;;-144.30;84.59
7180;BME280;3631;42.152;24.756;2024-02-23T00:59:11;86378.63;;;-144.30;84.31
7180;BME280;3631;42.152;24.756;2024-02-23T01:01:40;86372.66;;;-144.30;84.53
7180;BME280;3631;42.152;24.756;2024-02-23T01:04:06;86398.50;;;-144.30;85.25
7180;BME280;3631;42.152;24.756;2024-02-23T01:06:33;86392.53;;;-144.30;85.37
7180;BME280;3631;42.152;24.756;2024-02-23T01:09:00;86422.38;;;-144.30;85.61
7180;BME280;3631;42.152;24.756;2024-02-23T01:11:29;86386.56;;;-144.30;85.26
7180;BME280;3631;42.152;24.756;2024-02-23T01:13:56;86406.44;;;-144.30;85.05
7180;BME280;3631;42.152;24.756;2024-02-23T01:16:23;86374.63;;;-144.30;84.72
7180;BME280;3631;42.152;24.756;2024-02-23T01:18:51;86396.50;;;-144.30;85.23
7180;BME280;3631;42.152;24.756;2024-02-23T01:21:18;86408.44;;;-144.30;85.51
7180;BME280;3631;42.152;24.756;2024-02-23T01:23:45;86390.53;;;-144.30;84.92
7180;BME280;3631;42.152;24.756;2024-02-23T01:26:12;86404.47;;;-144.30;85.04
7180;BME280;3631;42.152;24.756;2024-02-23T01:28:39;86432.31;;;-144.30;84.86
7180;BME280;3631;42.152;24.756;2024-02-23T01:31:08;86422.38;;;-144.30;85.45
7180;BME280;3631;42.152;24.756;2024-02-23T01:33:36;86428.31;;;-144.30;85.68
7180;BME280;3631;42.152;24.756;2024-02-23T01:36:05;86380.59;;;-144.30;85.93
7180;BME280;3631;42.152;24.756;2024-02-23T01:38:32;86422.38;;;-144.30;85.99
7180;BME280;3631;42.152;24.756;2024-02-23T01:40:59;86418.38;;;-144.30;85.65
7180;BME280;3631;42.152;24.756;2024-02-23T01:43:26;86442.25;;;-144.30;86.20
7180;BME280;3631;42.152;24.756;2024-02-23T01:45:53;86410.44;;;-144.30;86.21
7180;BME280;3631;42.152;24.756;2024-02-23T01:48:20;86412.41;;;-144.30;86.15
7180;BME280;3631;42.152;24.756;2024-02-23T01:50:48;86424.34;;;-144.30;85.42
7180;BME280;3631;42.152;24.756;2024-02-23T01:53:17;86342.81;;;-144.30;85.78
7180;BME280;3631;42.152;24.756;2024-02-23T01:55:46;86396.50;;;-144.30;85.45
7180;BME280;3631;42.152;24.756;2024-02-23T01:58:14;86426.34;;;-144.30;85.72
7180;BME280;3631;42.152;24.756;2024-02-23T02:00:41;86410.44;;;-144.30;85.75
7180;BME280;3631;42.152;24.756;2024-02-23T02:03:08;86418.38;;;-144.30;85.57
7180;BME280;3631;42.152;24.756;2024-02-23T02:05:36;86442.25;;;-144.30;85.94
7180;BME280;3631;42.152;24.756;2024-02-23T02:08:03;86456.16;;;-144.30;85.73
7180;BME280;3631;42.152;24.756;2024-02-23T02:10:32;86468.09;;;-144.30;86.03
7180;BME280;3631;42.152;24.756;2024-02-23T02:13:02;86430.31;;;-144.30;86.00
7180;BME280;3631;42.152;24.756;2024-02-23T02:15:29;86422.38;;;-144.30;85.88
7180;BME280;3631;42.152;24.756;2024-02-23T02:17:56;86430.31;;;-144.30;85.99
7180;BME280;3631;42.152;24.756;2024-02-23T02:20:24;86470.09;;;-144.30;85.86
7180;BME280;3631;42.152;24.756;2024-02-23T02:22:51;86422.38;;;-144.30;85.38
7180;BME280;3631;42.152;24.756;2024-02-23T02:25:19;86420.38;;;-144.30;85.40
7180;BME280;3631;42.152;24.756;2024-02-23T02:27:47;86400.50;;;-144.30;85.40
7180;BME280;3631;42.152;24.756;2024-02-23T02:30:14;86432.31;;;-144.30;84.87
7180;BME280;3631;42.152;24.756;2024-02-23T02:32:41;86434.28;;;-144.30;85.11
7180;BME280;3631;42.152;24.756;2024-02-23T02:35:10;86472.06;;;-144.30;86.37
7180;BME280;3631;42.152;24.756;2024-02-23T02:37:38;86452.19;;;-144.30;86.12
7180;BME280;3631;42.152;24.756;2024-02-23T02:40:06;86472.06;;;-144.30;86.22
7180;BME280;3631;42.152;24.756;2024-02-23T02:42:33;86474.06;;;-144.30;85.98
7180;BME280;3631;42.152;24.756;2024-02-23T02:45:02;86442.25;;;-144.30;85.65
7180;BME280;3631;42.152;24.756;2024-02-23T02:47:29;86476.06;;;-144.30;85.68
7180;BME280;3631;42.152;24.756;2024-02-23T02:49:56;86462.13;;;-144.30;85.93
7180;BME280;3631;42.152;24.756;2024-02-23T02:52:23;87058.75;;;-144.30;86.08
7180;BME280;3631;42.152;24.756;2024-02-23T02:54:50;86478.03;;;-144.30;85.96
7180;BME280;3631;42.152;24.756;2024-02-23T02:57:17;86466.09;;;-144.30;85.91
7180;BME280;3631;42.152;24.756;2024-02-23T02:59:44;86410.44;;;-144.30;85.25
7180;BME280;3631;42.152;24.756;2024-02-23T03:02:12;86527.75;;;-144.30;85.11
7180;BME280;3631;42.152;24.756;2024-02-23T03:04:46;86493.94;;;-144.30;84.85
7180;BME280;3631;42.152;24.756;2024-02-23T03:07:13;86291.13;;;-144.30;84.11
7180;BME280;3631;42.152;24.756;2024-02-23T03:09:40;86456.16;;;-144.30;84.00
7180;BME280;3631;42.152;24.756;2024-02-23T03:12:07;86507.88;;;-144.30;83.73
7180;BME280;3631;42.152;24.756;2024-02-23T03:14:34;86466.09;;;-144.30;84.01
7180;BME280;3631;42.152;24.756;2024-02-23T03:17:03;86507.88;;;-144.30;84.02
7180;BME280;3631;42.152;24.756;2024-02-23T03:19:32;86509.84;;;-144.30;83.16
7180;BME280;3631;42.152;24.756;2024-02-23T03:21:59;86450.19;;;-144.30;83.23
7180;BME280;3631;42.152;24.756;2024-02-23T03:24:26;86491.97;;;-144.30;82.88
7180;BME280;3631;42.152;24.756;2024-02-23T03:26:53;86476.06;;;-144.30;83.24
7180;BME280;3631;42.152;24.756;2024-02-23T03:29:20;86505.88;;;-144.30;82.91
7180;BME280;3631;42.152;24.756;2024-02-23T03:31:49;86491.97;;;-144.30;82.77
7180;BME280;3631;42.152;24.756;2024-02-23T03:34:16;86470.09;;;-144.30;83.12
7180;BME280;3631;42.152;24.756;2024-02-23T03:36:44;86513.84;;;-144.30;83.34
7180;BME280;3631;42.152;24.756;2024-02-23T03:39:11;86501.91;;;-144.30;83.29
7180;BME280;3631;42.152;24.756;2024-02-23T03:41:38;86521.78;;;-144.30;83.57
7180;BME280;3631;42.152;24.756;2024-02-23T03:44:05;86486.00;;;-144.30;83.21
7180;BME280;3631;42.152;24.756;2024-02-23T03:46:33;86462.13;;;-144.30;83.77
7180;BME280;3631;42.152;24.756;2024-02-23T03:49:00;86495.94;;;-144.30;83.41
7180;BME280;3631;42.152;24.756;2024-02-23T03:51:27;86527.75;;;-144.30;83.73
7180;BME280;3631;42.152;24.756;2024-02-23T03:53:55;86491.97;;;-144.30;83.86
7180;BME280;3631;42.152;24.756;2024-02-23T03:56:22;86440.25;;;-144.30;84.05
7180;BME280;3631;42.152;24.756;2024-02-23T03:58:49;86482.03;;;-144.30;84.26
7180;BME280;3631;42.152;24.756;2024-02-23T04:01:16;86507.88;;;-144.30;84.37
7180;BME280;3631;42.152;24.756;2024-02-23T04:03:43;86493.94;;;-144.30;83.99
7180;BME280;3631;42.152;24.756;2024-02-23T04:06:10;86545.66;;;-144.30;84.02
7180;BME280;3631;42.152;24.756;2024-02-23T04:08:36;86515.81;;;-144.30;84.42
7180;BME280;3631;42.152;24.756;2024-02-23T04:11:04;86503.91;;;-144.30;84.67
7180;BME280;3631;42.152;24.756;2024-02-23T04:13:31;86482.03;;;-144.30;84.53
7180;BME280;3631;42.152;24.756;2024-02-23T04:15:58;86513.84;;;-144.30;84.34
7180;BME280;3631;42.152;24.756;2024-02-23T04:18:26;86462.13;;;-144.30;83.90
7180;BME280;3631;42.152;24.756;2024-02-23T04:20:53;86484.00;;;-144.30;84.38
7180;BME280;3631;42.152;24.756;2024-02-23T04:23:19;86497.94;;;-144.30;84.72
7180;BME280;3631;42.152;24.756;2024-02-23T04:25:46;86517.81;;;-144.30;84.90
7180;BME280;3631;42.152;24.756;2024-02-23T04:28:15;86509.84;;;-144.30;85.04
7180;BME280;3631;42.152;24.756;2024-02-23T04:30:41;86513.84;;;-144.30;85.50
7180;BME280;3631;42.152;24.756;2024-02-23T04:33:08;86489.97;;;-144.30;85.99
7180;BME280;3631;42.152;24.756;2024-02-23T04:35:35;86489.97;;;-144.30;85.79
7180;BME280;3631;42.152;24.756;2024-02-23T04:38:03;86533.72;;;-144.30;85.07
7180;BME280;3631;42.152;24.756;2024-02-23T04:40:30;86517.81;;;-144.30;85.75
7180;BME280;3631;42.152;24.756;2024-02-23T04:42:57;86509.84;;;-144.30;85.74
7180;BME280;3631;42.152;24.756;2024-02-23T04:45:25;86509.84;;;-144.30;85.56
7180;BME280;3631;42.152;24.756;2024-02-23T04:47:52;86487.97;;;-144.30;85.28
7180;BME280;3631;42.152;24.756;2024-02-23T04:50:19;86478.03;;;-144.30;85.22
7180;BME280;3631;42.152;24.756;2024-02-23T04:52:46;86573.50;;;-144.30;85.34
7180;BME280;3631;42.152;24.756;2024-02-23T04:55:12;86507.88;;;-144.30;84.67
7180;BME280;3631;42.152;24.756;2024-02-23T04:57:39;86493.94;;;-144.30;83.86
7180;BME280;3631;42.152;24.756;2024-02-23T05:00:07;86507.88;;;-144.30;83.98
7180;BME280;3631;42.152;24.756;2024-02-23T05:02:36;86527.75;;;-144.30;84.99
7180;BME280;3631;42.152;24.756;2024-02-23T05:05:03;86517.81;;;-144.30;85.06
7180;BME280;3631;42.152;24.756;2024-02-23T05:07:30;86503.91;;;-144.30;84.96
7180;BME280;3631;42.152;24.756;2024-02-23T05:09:57;86539.69;;;-144.30;85.36
7180;BME280;3631;42.152;24.756;2024-02-23T05:12:24;86521.78;;;-144.30;85.43
7180;BME280;3631;42.152;24.756;2024-02-23T05:14:51;86474.06;;;-144.30;86.37
7180;BME280;3631;42.152;24.756;2024-02-23T05:17:18;86501.91;;;-144.30;86.54
7180;BME280;3631;42.152;24.756;2024-02-23T05:19:47;86533.72;;;-144.30;86.22
7180;BME280;3631;42.152;24.756;2024-02-23T05:22:13;86478.03;;;-144.30;86.13
7180;BME280;3631;42.152;24.756;2024-02-23T05:24:40;86507.88;;;-144.30;86.16
7180;BME280;3631;42.152;24.756;2024-02-23T05:27:07;86513.84;;;-144.30;86.50
7180;BME280;3631;42.152;24.756;2024-02-23T05:29:34;86478.03;;;-144.30;85.88
7180;BME280;3631;42.152;24.756;2024-02-23T05:32:01;86513.84;;;-144.30;84.95
7180;BME280;3631;42.152;24.756;2024-02-23T05:34:28;86489.97;;;-144.30;84.04
7180;BME280;3631;42.152;24.756;2024-02-23T05:36:57;86414.41;;;-144.30;83.85
7180;BME280;3631;42.152;24.756;2024-02-23T05:39:24;86466.09;;;-144.30;83.40
7180;BME280;3631;42.152;24.756;2024-02-23T05:41:50;86283.16;;;-144.30;82.20
7180;BME280;3631;42.152;24.756;2024-02-23T05:44:17;86350.78;;;-144.30;78.62
7180;BME280;3631;42.152;24.756;2024-02-23T05:46:44;86277.19;;;-144.30;72.69
7180;BME280;3631;42.152;24.756;2024-02-23T05:49:11;86285.16;;;-144.30;66.54
7180;BME280;3631;42.152;24.756;2024-02-23T05:51:38;86159.88;;;-144.30;63.51
7180;BME280;3631;42.152;24.756;2024-02-23T05:54:07;86068.41;;;-144.30;58.37
7180;BME280;3631;42.152;24.756;2024-02-23T05:56:34;86000.81;;;-144.30;53.92
7180;BME280;3631;42.152;24.756;2024-02-23T05:59:02;85857.66;;;-144.30;50.50
7180;BME280;3631;42.152;24.756;2024-02-23T06:01:30;85782.13;;;-144.30;47.65
7180;BME280;3631;42.152;24.756;2024-02-23T06:03:57;85674.75;;;-144.30;44.83
7180;BME280;3631;42.152;24.756;2024-02-23T06:06:24;85527.63;;;-144.30;42.48
7180;BME280;3631;42.152;24.756;2024-02-23T06:08:52;85450.09;;;-144.30;39.66
7180;BME280;3631;42.152;24.756;2024-02-23T06:11:20;85468.00;;;-144.30;39.70
7180;BME280;3631;42.152;24.756;2024-02-23T06:13:47;85559.44;;;-144.30;40.08
7180;BME280;3631;42.152;24.756;2024-02-23T06:16:13;85597.22;;;-144.30;40.54
7180;BME280;3631;42.152;24.756;2024-02-23T06:18:41;85497.81;;;-144.30;39.89
7180;BME280;3631;42.152;24.756;2024-02-23T06:21:12;85452.09;;;-144.30;38.77
7180;BME280;3631;42.152;24.756;2024-02-23T06:23:39;85374.56;;;-144.30;37.81
7180;BME280;3631;42.152;24.756;2024-02-23T06:26:07;85913.34;;;-144.30;36.99
7180;BME280;3631;42.152;24.756;2024-02-23T06:28:35;85271.19;;;-144.30;36.15
7180;BME280;3631;42.152;24.756;2024-02-23T06:31:04;85191.69;;;-144.30;35.47
7180;BME280;3631;42.152;24.756;2024-02-23T06:33:31;84986.94;;;-144.30;34.52
7180;BME280;3631;42.152;24.756;2024-02-23T06:35:58;85028.69;;;-144.30;33.43
7180;BME280;3631;42.152;24.756;2024-02-23T06:38:25;84990.91;;;-144.30;33.56
7180;BME280;3631;42.152;24.756;2024-02-23T06:40:52;84929.28;;;-144.30;33.09
7180;BME280;3631;42.152;24.756;2024-02-23T06:43:20;84768.31;;;-144.30;32.00
7180;BME280;3631;42.152;24.756;2024-02-23T06:45:48;84639.13;;;-144.30;30.86
7180;BME280;3631;42.152;24.756;2024-02-23T06:48:15;84605.31;;;-144.30;30.20
7180;BME280;3631;42.152;24.756;2024-02-23T06:50:42;84716.63;;;-144.30;30.99
7180;BME280;3631;42.152;24.756;2024-02-23T06:53:09;84732.53;;;-144.30;31.01
7180;BME280;3631;42.152;24.756;2024-02-23T06:55:36;84599.34;;;-144.30;30.58
7180;BME280;3631;42.152;24.756;2024-02-23T06:58:03;84601.34;;;-144.30;30.16
7180;BME280;3631;42.152;24.756;2024-02-23T07:00:32;84744.44;;;-144.30;30.83
7180;BME280;3631;42.152;24.756;2024-02-23T07:03:02;84641.09;;;-144.30;30.73
7180;BME280;3631;42.152;24.756;2024-02-23T07:05:29;84637.13;;;-144.30;30.43
7180;BME280;3631;42.152;24.756;2024-02-23T07:07:56;84647.06;;;-144.30;29.88
7180;BME280;3631;42.152;24.756;2024-02-23T07:10:23;84700.72;;;-144.30;30.62
7180;BME280;3631;42.152;24.756;2024-02-23T07:12:51;84990.91;;;-144.30;31.72
7180;BME280;3631;42.152;24.756;2024-02-23T07:15:19;85191.69;;;-144.30;33.16
7180;BME280;3631;42.152;24.756;2024-02-23T07:17:46;85303.00;;;-144.30;34.35
7180;BME280;3631;42.152;24.756;2024-02-23T07:20:15;85456.06;;;-144.30;36.18
7180;BME280;3631;42.152;24.756;2024-02-23T07:22:43;85605.19;;;-144.30;37.63
7180;BME280;3631;42.152;24.756;2024-02-23T07:25:10;85672.75;;;-144.30;38.73
7180;BME280;3631;42.152;24.756;2024-02-23T07:27:37;85744.34;;;-144.30;40.18
7180;BME280;3631;42.152;24.756;2024-02-23T07:30:05;85813.94;;;-144.30;41.40
7180;BME280;3631;42.152;24.756;2024-02-23T07:32:33;85774.16;;;-144.30;42.29
7180;BME280;3631;42.152;24.756;2024-02-23T07:34:59;85841.75;;;-144.30;42.77
7180;BME280;3631;42.152;24.756;2024-02-23T07:37:28;85817.91;;;-144.30;42.87
7180;BME280;3631;42.152;24.756;2024-02-23T07:39:55;85901.41;;;-144.30;44.51
7180;BME280;3631;42.152;24.756;2024-02-23T07:42:22;85893.44;;;-144.30;44.73
7180;BME280;3631;42.152;24.756;2024-02-23T07:44:49;85901.41;;;-144.30;45.46
7180;BME280;3631;42.152;24.756;2024-02-23T07:47:16;85889.47;;;-144.30;45.95
7180;BME280;3631;42.152;24.756;2024-02-23T07:49:43;85915.31;;;-144.30;47.02
7180;BME280;3631;42.152;24.756;2024-02-23T07:52:09;85929.25;;;-144.30;47.49
7180;BME280;3631;42.152;24.756;2024-02-23T07:54:38;85971.00;;;-144.30;47.23
7180;BME280;3631;42.152;24.756;2024-02-23T07:57:05;85961.06;;;-144.30;47.90
7180;BME280;3631;42.152;24.756;2024-02-23T07:59:32;85953.09;;;-144.30;48.29
7180;BME280;3631;42.152;24.756;2024-02-23T08:01:59;85945.16;;;-144.30;48.69
7180;BME280;3631;42.152;24.756;2024-02-23T08:04:26;86402.47;;;-144.30;49.07
7180;BME280;3631;42.152;24.756;2024-02-23T08:06:53;86000.81;;;-144.30;49.83
7180;BME280;3631;42.152;24.756;2024-02-23T08:09:20;85988.88;;;-144.30;50.65
7180;BME280;3631;42.152;24.756;2024-02-23T08:11:50;85949.13;;;-144.30;50.47
7180;BME280;3631;42.152;24.756;2024-02-23T08:14:17;85955.09;;;-144.30;50.38
7180;BME280;3631;42.152;24.756;2024-02-23T08:16:43;85990.88;;;-144.30;51.57
7180;BME280;3631;42.152;24.756;2024-02-23T08:19:10;85863.63;;;-144.30;51.46
7180;BME280;3631;42.152;24.756;2024-02-23T08:21:38;85905.38;;;-144.30;52.35
7180;BME280;3631;42.152;24.756;2024-02-23T08:24:06;86002.81;;;-144.30;53.70
7180;BME280;3631;42.152;24.756;2024-02-23T08:26:33;86016.72;;;-144.30;54.07
7180;BME280;3631;42.152;24.756;2024-02-23T08:29:02;86024.69;;;-144.30;54.12
7180;BME280;3631;42.152;24.756;2024-02-23T08:31:30;86040.59;;;-144.30;54.21
7180;BME280;3631;42.152;24.756;2024-02-23T08:33:57;85980.94;;;-144.30;54.40
7180;BME280;3631;42.152;24.756;2024-02-23T08:36:23;86012.75;;;-144.30;54.49
7180;BME280;3631;42.152;24.756;2024-02-23T08:38:50;86004.78;;;-144.30;54.05
7180;BME280;3631;42.152;24.756;2024-02-23T08:41:17;85972.97;;;-144.30;53.99
7180;BME280;3631;42.152;24.756;2024-02-23T08:43:44;85969.00;;;-144.30;54.38
7180;BME280;3631;42.152;24.756;2024-02-23T08:46:12;85994.84;;;-144.30;54.78
7180;BME280;3631;42.152;24.756;2024-02-23T08:48:39;85992.88;;;-144.30;55.06
7180;BME280;3631;42.152;24.756;2024-02-23T08:51:06;85861.63;;;-144.30;55.09
7180;BME280;3631;42.152;24.756;2024-02-23T08:53:33;85853.69;;;-144.30;55.32
7180;BME280;3631;42.152;24.756;2024-02-23T08:56:00;85974.97;;;-144.30;55.66
7180;BME280;3631;42.152;24.756;2024-02-23T08:58:27;85953.09;;;-144.30;56.08
7180;BME280;3631;42.152;24.756;2024-02-23T09:00:54;85913.34;;;-144.30;56.44
7180;BME280;3631;42.152;24.756;2024-02-23T09:03:22;85915.31;;;-144.30;56.39
7180;BME280;3631;42.152;24.756;2024-02-23T09:05:50;85957.06;;;-144.30;56.63
7180;BME280;3631;42.152;24.756;2024-02-23T09:08:17;85974.97;;;-144.30;57.07
7180;BME280;3631;42.152;24.756;2024-02-23T09:10:44;86577.47;;;-144.30;57.87
7180;BME280;3631;42.152;24.756;2024-02-23T09:13:11;86014.75;;;-144.30;58.20
7180;BME280;3631;42.152;24.756;2024-02-23T09:15:38;85982.94;;;-144.30;58.25
7180;BME280;3631;42.152;24.756;2024-02-23T09:18:05;86000.81;;;-144.30;58.30
7180;BME280;3631;42.152;24.756;2024-02-23T09:20:33;85992.88;;;-144.30;57.58
7180;BME280;3631;42.152;24.756;2024-02-23T09:23:00;85913.34;;;-144.30;57.35
7180;BME280;3631;42.152;24.756;2024-02-23T09:25:27;85919.31;;;-144.30;56.00
7180;BME280;3631;42.152;24.756;2024-02-23T09:27:57;85941.16;;;-144.30;56.85
7180;BME280;3631;42.152;24.756;2024-02-23T09:30:23;85965.03;;;-144.30;58.18
7180;BME280;3631;42.152;24.756;2024-02-23T09:32:50;85992.88;;;-144.30;58.29
7180;BME280;3631;42.152;24.756;2024-02-23T09:35:17;85990.88;;;-144.30;57.41
7180;BME280;3631;42.152;24.756;2024-02-23T09:37:46;85957.06;;;-144.30;57.26
7180;BME280;3631;42.152;24.756;2024-02-23T09:40:15;85990.88;;;-144.30;56.65
7180;BME280;3631;42.152;24.756;2024-02-23T09:42:42;85949.13;;;-144.30;56.21
7180;BME280;3631;42.152;24.756;2024-02-23T09:45:11;85933.22;;;-144.30;56.02
7180;BME280;3631;42.152;24.756;2024-02-23T09:47:40;85945.16;;;-144.30;56.34
7180;BME280;3631;42.152;24.756;2024-02-23T09:50:08;85929.25;;;-144.30;56.48
7180;BME280;3631;42.152;24.756;2024-02-23T09:52:36;85881.53;;;-144.30;56.01
7180;BME280;3631;42.152;24.756;2024-02-23T09:55:05;85881.53;;;-144.30;55.92
7180;BME280;3631;42.152;24.756;2024-02-23T09:57:33;85923.28;;;-144.30;56.00
7180;BME280;3631;42.152;24.756;2024-02-23T10:00:01;85931.22;;;-144.30;56.07
7180;BME280;3631;42.152;24.756;2024-02-23T10:02:32;85921.28;;;-144.30;55.23
7180;BME280;3631;42.152;24.756;2024-02-23T10:05:00;85869.59;;;-144.30;54.93
7180;BME280;3631;42.152;24.756;2024-02-23T10:07:28;85871.59;;;-144.30;55.18
7180;BME280;3631;42.152;24.756;2024-02-23T10:09:55;85865.63;;;-144.30;53.93
7180;BME280;3631;42.152;24.756;2024-02-23T10:12:23;85853.69;;;-144.30;53.51
7180;BME280;3631;42.152;24.756;2024-02-23T10:14:50;85919.31;;;-144.30;53.99
7180;BME280;3631;42.152;24.756;2024-02-23T10:17:17;85913.34;;;-144.30;54.04
7180;BME280;3631;42.152;24.756;2024-02-23T10:19:44;85885.50;;;-144.30;53.89
7180;BME280;3631;42.152;24.756;2024-02-23T10:22:11;85877.53;;;-144.30;53.16
7180;BME280;3631;42.152;24.756;2024-02-23T10:24:38;85851.69;;;-144.30;52.75
7180;BME280;3631;42.152;24.756;2024-02-23T10:27:05;85853.69;;;-144.30;51.54
7180;BME280;3631;42.152;24.756;2024-02-23T10:29:33;85851.69;;;-144.30;51.81
7180;BME280;3631;42.152;24.756;2024-02-23T10:32:01;85869.59;;;-144.30;51.64
7180;BME280;3631;42.152;24.756;2024-02-23T10:34:29;85817.91;;;-144.30;52.08
7180;BME280;3631;42.152;24.756;2024-02-23T10:36:57;85803.97;;;-144.30;52.32
7180;BME280;3631;42.152;24.756;2024-02-23T10:39:24;85768.19;;;-144.30;51.87
7180;BME280;3631;42.152;24.756;2024-02-23T10:41:57;85845.75;;;-144.30;51.38
7180;BME280;3631;42.152;24.756;2024-02-23T10:44:26;85794.03;;;-144.30;50.67
7180;BME280;3631;42.152;24.756;2024-02-23T10:46:58;85802.00;;;-144.30;50.61
7180;BME280;3631;42.152;24.756;2024-02-23T10:49:25;85768.19;;;-144.30;50.36
7180;BME280;3631;42.152;24.756;2024-02-23T10:51:53;85623.06;;;-144.30;49.39
7180;BME280;3631;42.152;24.756;2024-02-23T10:54:20;85778.13;;;-144.30;49.72
7180;BME280;3631;42.152;24.756;2024-02-23T10:56:49;85728.44;;;-144.30;49.07
7180;BME280;3631;42.152;24.756;2024-02-23T10:59:17;85792.06;;;-144.30;48.75
7180;BME280;3631;42.152;24.756;2024-02-23T11:01:46;85760.25;;;-144.30;48.32
7180;BME280;3631;42.152;24.756;2024-02-23T11:04:16;85772.19;;;-144.30;48.15
7180;BME280;3631;42.152;24.756;2024-02-23T11:06:49;85744.34;;;-144.30;48.27
7180;BME280;3631;42.152;24.756;2024-02-23T11:09:16;85722.47;;;-144.30;47.35
7180;BME280;3631;42.152;24.756;2024-02-23T11:11:52;85760.25;;;-144.30;47.06
7180;BME280;3631;42.152;24.756;2024-02-23T11:14:29;85706.56;;;-144.30;46.80
7180;BME280;3631;42.152;24.756;2024-02-23T11:16:57;85674.75;;;-144.30;47.69
7180;BME280;3631;42.152;24.756;2024-02-23T11:19:33;85668.78;;;-144.30;45.85
7180;BME280;3631;42.152;24.756;2024-02-23T11:22:01;85660.84;;;-144.30;45.97
7180;BME280;3631;42.152;24.756;2024-02-23T11:24:28;85688.66;;;-144.30;46.12
7180;BME280;3631;42.152;24.756;2024-02-23T11:26:59;85702.59;;;-144.30;45.78
7180;BME280;3631;42.152;24.756;2024-02-23T11:29:34;85821.88;;;-144.30;45.24
7180;BME280;3631;42.152;24.756;2024-02-23T11:32:02;85662.81;;;-144.30;45.04
7180;BME280;3631;42.152;24.756;2024-02-23T11:34:29;85700.59;;;-144.30;45.10
7180;BME280;3631;42.152;24.756;2024-02-23T11:37:07;85646.91;;;-144.30;45.83
7180;BME280;3631;42.152;24.756;2024-02-23T11:39:37;85684.69;;;-144.30;45.63
7180;BME280;3631;42.152;24.756;2024-02-23T11:42:05;85658.84;;;-144.30;45.33
7180;BME280;3631;42.152;24.756;2024-02-23T11:44:32;85662.81;;;-144.30;45.25
7180;BME280;3631;42.152;24.756;2024-02-23T11:46:59;85668.78;;;-144.30;44.95
7180;BME280;3631;42.152;24.756;2024-02-23T11:49:29;85674.75;;;-144.30;44.81
7180;BME280;3631;42.152;24.756;2024-02-23T11:51:58;85658.84;;;-144.30;44.70
7180;BME280;3631;42.152;24.756;2024-02-23T11:54:26;85674.75;;;-144.30;44.10
7180;BME280;3631;42.152;24.756;2024-02-23T11:56:53;85670.78;;;-144.30;44.44
7180;BME280;3631;42.152;24.756;2024-02-23T11:59:20;85672.75;;;-144.30;44.45
7180;BME280;3631;42.152;24.756;2024-02-23T12:01:48;85690.66;;;-144.30;44.36
7180;BME280;3631;42.152;24.756;2024-02-23T12:04:15;85672.75;;;-144.30;44.27
7180;BME280;3631;42.152;24.756;2024-02-23T12:06:42;85627.03;;;-144.30;44.28
7180;BME280;3631;42.152;24.756;2024-02-23T12:09:12;85569.38;;;-144.30;44.48
7180;BME280;3631;42.152;24.756;2024-02-23T12:11:40;85621.06;;;-144.30;44.12
7180;BME280;3631;42.152;24.756;2024-02-23T12:14:07;85635.00;;;-144.30;44.05
7180;BME280;3631;42.152;24.756;2024-02-23T12:16:34;85599.22;;;-144.30;43.92
7180;BME280;3631;42.152;24.756;2024-02-23T12:19:02;85533.59;;;-144.30;43.84
7180;BME280;3631;42.152;24.756;2024-02-23T12:21:29;85611.13;;;-144.30;43.65
7180;BME280;3631;42.152;24.756;2024-02-23T12:23:56;85611.13;;;-144.30;43.33
7180;BME280;3631;42.152;24.756;2024-02-23T12:26:24;85611.13;;;-144.30;43.47
7180;BME280;3631;42.152;24.756;2024-02-23T12:28:51;85581.31;;;-144.30;43.34
7180;BME280;3631;42.152;24.756;2024-02-23T12:31:23;85591.25;;;-144.30;42.74
7180;BME280;3631;42.152;24.756;2024-02-23T12:33:52;85392.47;;;-144.30;42.63
7180;BME280;3631;42.152;24.756;2024-02-23T12:36:19;85571.38;;;-144.30;42.85
7180;BME280;3631;42.152;24.756;2024-02-23T12:38:46;85547.53;;;-144.30;42.96
7180;BME280;3631;42.152;24.756;2024-02-23T12:41:12;85537.59;;;-144.30;42.29
7180;BME280;3631;42.152;24.756;2024-02-23T12:43:41;85539.56;;;-144.30;42.73
7180;BME280;3631;42.152;24.756;2024-02-23T12:46:08;85589.28;;;-144.30;42.05
7180;BME280;3631;42.152;24.756;2024-02-23T12:48:35;85563.41;;;-144.30;42.34
7180;BME280;3631;42.152;24.756;2024-02-23T12:51:02;85515.72;;;-144.30;42.10